Time;durP1;ratioP1;P1;durP2;ratioP2;P2;SDS_P1;SDS_P2;PMS_P1;PMS_P2;Temp;Humidity;BMP_temperature;BMP_pressure;BME280_temperature;BME280_humidity;BME280_pressure;Samples;Min_cycle;Max_cycle;Signal;HPM_P1;HPM_P2
2022/04/12 00:01:39;;;;;;;13.77;7.35;;;;;;;10.22;59.41;101086.22;5017561;28;20093;-47
2022/04/12 00:04:07;;;;;;;16.60;7.32;;;;;;;10.18;58.81;101076.00;5016112;28;20049;-47
2022/04/12 00:06:33;;;;;;;13.93;7.40;;;;;;;10.19;60.37;101070.53;5017660;28;20034;-50
2022/04/12 00:08:59;;;;;;;15.15;7.80;;;;;;;10.16;59.19;101061.97;5017038;28;20033;-50
2022/04/12 00:11:25;;;;;;;26.05;8.70;;;;;;;10.14;59.93;101055.97;5015934;28;20338;-46
2022/04/12 00:13:50;;;;;;;17.15;8.35;;;;;;;10.09;60.66;101051.91;5017648;28;20018;-47
2022/04/12 00:16:16;;;;;;;16.75;7.25;;;;;;;10.03;59.97;101043.66;5018225;28;20104;-46
2022/04/12 00:21:25;;;;;;;13.32;7.15;;;;;;;9.98;61.70;101052.16;5017476;28;20064;-44
2022/04/12 00:23:50;;;;;;;15.80;7.53;;;;;;;9.92;60.32;101046.59;5016922;28;20064;-47
2022/04/12 00:26:16;;;;;;;14.85;7.65;;;;;;;9.87;60.93;101049.69;5016401;28;20032;-47
2022/04/12 00:28:41;;;;;;;18.60;7.63;;;;;;;9.83;59.99;101043.84;5016895;28;20226;-46
2022/04/12 00:31:08;;;;;;;15.60;7.32;;;;;;;9.81;60.24;101048.50;5016624;28;20480;-47
2022/04/12 00:33:33;;;;;;;15.48;6.93;;;;;;;9.78;59.66;101034.63;5016952;28;20033;-48
2022/04/12 00:36:00;;;;;;;19.63;6.88;;;;;;;9.78;60.05;101046.13;5017662;28;20472;-46
2022/04/12 00:38:27;;;;;;;16.17;6.90;;;;;;;9.76;59.42;101040.09;4994509;28;20130;-48
2022/04/12 00:40:54;;;;;;;11.95;6.30;;;;;;;9.74;60.16;101034.06;5016365;28;20014;-48
2022/04/12 00:43:20;;;;;;;11.82;6.63;;;;;;;9.73;59.51;101035.06;5017897;28;20362;-48
2022/04/12 00:45:46;;;;;;;11.77;6.60;;;;;;;9.71;60.11;101045.06;5017239;28;20465;-49
2022/04/12 00:48:12;;;;;;;13.57;6.47;;;;;;;9.72;59.88;101052.03;5017672;28;20033;-46
2022/04/12 00:50:37;;;;;;;13.27;6.65;;;;;;;9.71;60.33;101037.88;5017439;28;20045;-49
2022/04/12 00:53:03;;;;;;;13.93;6.30;;;;;;;9.66;59.54;101042.81;4999758;28;20524;-48
2022/04/12 00:55:29;;;;;;;13.18;6.55;;;;;;;9.71;60.60;101058.38;5017364;28;20028;-47
2022/04/12 00:57:56;;;;;;;15.48;6.38;;;;;;;9.67;60.60;101051.66;5018178;28;20033;-48
2022/04/12 01:00:22;;;;;;;14.00;6.35;;;;;;;9.67;60.98;101049.00;5016563;28;20047;-49
2022/04/12 01:02:47;;;;;;;16.00;6.70;;;;;;;9.62;61.35;101051.25;5016799;28;20033;-49
2022/04/12 01:05:13;;;;;;;15.70;6.47;;;;;;;9.62;61.21;101056.59;5018037;28;20014;-46
2022/04/12 01:07:38;;;;;;;14.48;6.53;;;;;;;9.56;61.64;101052.72;5017509;28;20022;-46
2022/04/12 01:10:05;;;;;;;16.65;6.45;;;;;;;9.55;62.10;101050.19;5017933;28;20452;-48
2022/04/12 01:12:38;;;;;;;12.40;6.13;;;;;;;9.50;61.93;101048.81;5016961;28;20369;-46
2022/04/12 01:15:14;;;;;;;9.18;6.18;;;;;;;9.44;61.60;101041.41;5020249;28;20025;-46
2022/04/12 01:17:41;;;;;;;15.13;6.15;;;;;;;9.38;61.85;101033.16;5020580;28;20144;-46
2022/04/12 01:20:07;;;;;;;12.15;6.00;;;;;;;9.34;62.51;101036.13;5021600;28;20534;-48
2022/04/12 01:22:34;;;;;;;14.80;5.93;;;;;;;9.28;61.69;101031.41;5003324;28;20120;-46
2022/04/12 01:24:59;;;;;;;14.88;6.60;;;;;;;9.25;62.64;101036.16;5021202;28;20033;-47
2022/04/12 01:27:25;;;;;;;11.02;5.80;;;;;;;9.20;62.90;101038.44;5020788;28;20081;-48
2022/04/12 01:29:52;;;;;;;15.45;6.43;;;;;;;9.14;63.22;101037.22;5002909;28;20353;-46
2022/04/12 01:32:17;;;;;;;11.80;6.07;;;;;;;9.13;63.54;101028.38;5020296;28;20469;-48
2022/04/12 01:34:42;;;;;;;11.38;5.93;;;;;;;9.09;62.49;101026.97;5020244;28;20057;-49
2022/04/12 01:37:08;;;;;;;12.10;5.57;;;;;;;9.11;63.72;101034.84;5020830;28;20095;-47
2022/04/12 01:39:33;;;;;;;11.63;5.95;;;;;;;9.08;63.64;101035.13;5021262;28;20037;-51
2022/04/12 01:41:59;;;;;;;11.55;6.25;;;;;;;9.06;63.42;101031.78;5020131;28;20357;-48
2022/04/12 01:44:24;;;;;;;14.90;5.93;;;;;;;9.03;63.66;101029.41;5019976;28;20029;-46
2022/04/12 01:46:50;;;;;;;13.88;5.90;;;;;;;9.02;63.80;101022.41;5021359;28;20095;-48
2022/04/12 01:49:16;;;;;;;13.85;5.95;;;;;;;9.01;63.71;101026.03;5020466;28;20112;-49
2022/04/12 01:51:42;;;;;;;21.38;5.88;;;;;;;9.00;64.09;101032.38;5020194;28;20064;-48
2022/04/12 01:54:07;;;;;;;13.32;6.28;;;;;;;8.99;64.24;101020.03;5019820;28;20048;-50
2022/04/12 01:56:33;;;;;;;14.48;5.40;;;;;;;8.96;64.16;101018.47;5020608;28;20017;-46
2022/04/12 01:59:02;;;;;;;10.65;5.95;;;;;;;8.95;64.04;101022.97;5020710;28;20510;-46
2022/04/12 02:01:29;;;;;;;11.40;5.72;;;;;;;8.91;64.28;101008.28;5020710;28;20374;-46
2022/04/12 02:03:54;;;;;;;13.27;6.05;;;;;;;8.90;64.50;101008.44;5019886;28;21125;-46
2022/04/12 02:06:20;;;;;;;9.63;5.68;;;;;;;8.88;65.10;101005.09;5020713;28;20125;-48
2022/04/12 02:08:45;;;;;;;14.55;6.20;;;;;;;8.85;64.74;101002.72;5020265;28;20026;-46
2022/04/12 02:11:10;;;;;;;13.90;6.28;;;;;;;8.82;65.01;101009.16;5019764;28;20088;-46
2022/04/12 02:13:35;;;;;;;13.73;6.07;;;;;;;8.81;65.57;101018.13;5019953;28;20363;-46
2022/04/12 02:16:01;;;;;;;14.02;6.07;;;;;;;8.79;65.62;101017.41;5020164;28;20036;-50
2022/04/12 02:18:26;;;;;;;11.38;5.50;;;;;;;8.78;64.59;101021.09;5019377;28;20360;-49
2022/04/12 02:20:51;;;;;;;14.73;5.93;;;;;;;8.78;65.47;101015.75;5019031;28;20127;-47
2022/04/12 02:23:16;;;;;;;13.10;5.90;;;;;;;8.73;65.40;101012.69;5019644;28;20033;-49
2022/04/12 02:25:42;;;;;;;14.52;5.80;;;;;;;8.73;65.93;101010.88;5000037;28;20033;-48
2022/04/12 02:28:07;;;;;;;12.93;5.90;;;;;;;8.73;66.79;101012.69;5018914;28;20026;-46
2022/04/12 02:30:32;;;;;;;13.07;6.30;;;;;;;8.68;66.58;101023.78;5020829;28;20084;-46
2022/04/12 02:32:58;;;;;;;13.88;6.85;;;;;;;8.66;66.86;101023.09;5018647;28;20087;-47
2022/04/12 02:35:25;;;;;;;12.15;6.28;;;;;;;8.66;67.02;101022.25;5020156;28;20041;-47
2022/04/12 02:37:50;;;;;;;14.23;6.57;;;;;;;8.64;66.94;101021.53;5019367;28;20480;-45
2022/04/12 02:40:17;;;;;;;10.77;6.20;;;;;;;8.59;66.32;101014.81;5019181;28;20124;-46
2022/04/12 02:42:42;;;;;;;14.02;6.03;;;;;;;8.55;66.94;101009.94;5019474;28;20057;-48
2022/04/12 02:45:08;;;;;;;12.07;6.03;;;;;;;8.51;67.61;101006.72;5019912;28;20068;-46
2022/04/12 02:47:33;;;;;;;14.80;6.72;;;;;;;8.46;67.62;101008.97;5019090;28;20461;-49
2022/04/12 02:49:58;;;;;;;13.68;6.80;;;;;;;8.41;67.64;101005.88;5019388;28;20397;-49
2022/04/12 02:52:23;;;;;;;11.20;6.25;;;;;;;8.40;68.51;101001.53;4988304;28;20092;-49
2022/04/12 02:54:49;;;;;;;16.52;7.00;;;;;;;8.31;67.57;100991.75;5000724;28;20137;-49
2022/04/12 02:57:15;;;;;;;12.55;6.47;;;;;;;8.35;68.03;100987.81;5019017;28;20092;-46
2022/04/12 02:59:40;;;;;;;12.40;6.35;;;;;;;8.32;68.54;100983.63;5019738;28;20025;-46
2022/04/12 03:02:05;;;;;;;11.00;6.32;;;;;;;8.32;68.30;100986.28;5019559;28;20117;-50
2022/04/12 03:04:31;;;;;;;15.07;6.70;;;;;;;8.30;69.50;100977.59;5018698;28;20527;-49
2022/04/12 03:06:56;;;;;;;12.77;6.05;;;;;;;8.28;69.25;100970.75;5018524;28;20060;-49
2022/04/12 03:09:22;;;;;;;15.48;6.75;;;;;;;8.25;69.14;100969.22;5019214;28;20192;-47
2022/04/12 03:11:48;;;;;;;17.80;6.53;;;;;;;8.25;69.43;100971.88;5018503;28;20453;-47
2022/04/12 03:14:13;;;;;;;15.32;6.80;;;;;;;8.25;69.34;100974.53;5018754;28;20029;-46
2022/04/12 03:16:38;;;;;;;12.23;6.35;;;;;;;8.21;69.55;100966.00;5018995;28;20033;-50
2022/04/12 03:19:03;;;;;;;14.52;7.00;;;;;;;8.20;70.02;100966.97;5018435;28;20124;-48
2022/04/12 03:21:29;;;;;;;11.95;6.65;;;;;;;8.17;69.72;100964.59;5019357;28;20026;-47
2022/04/12 03:23:54;;;;;;;17.08;6.80;;;;;;;8.15;70.31;100965.72;5018023;28;20104;-47
2022/04/12 03:26:19;;;;;;;11.10;6.03;;;;;;;8.16;69.55;100954.09;5033126;28;20507;-46
2022/04/12 03:28:45;;;;;;;14.68;6.75;;;;;;;8.15;69.94;100953.25;5019124;28;20041;-47
2022/04/12 03:31:10;;;;;;;15.55;7.03;;;;;;;8.15;69.78;100947.13;5019207;28;20279;-48
2022/04/12 03:33:35;;;;;;;16.90;6.47;;;;;;;8.15;69.71;100952.44;5018336;28;20452;-47
2022/04/12 03:36:00;;;;;;;12.68;6.65;;;;;;;8.16;69.73;100954.94;5019082;28;20026;-49
2022/04/12 03:38:26;;;;;;;14.35;6.32;;;;;;;8.17;70.69;100955.78;5018517;28;20053;-48
2022/04/12 03:40:51;;;;;;;15.88;6.68;;;;;;;8.14;70.50;100946.25;5017204;28;20420;-49
2022/04/12 03:43:17;;;;;;;12.50;6.50;;;;;;;8.13;70.56;100949.06;5018616;28;20025;-49
2022/04/12 03:45:42;;;;;;;12.90;6.53;;;;;;;8.10;70.58;100960.00;5018053;28;20100;-46
2022/04/12 03:48:07;;;;;;;17.50;6.97;;;;;;;8.06;71.53;100964.75;5000049;28;20025;-46
2022/04/12 03:50:34;;;;;;;18.10;7.38;;;;;;;8.04;72.01;100958.72;5017353;28;20126;-48
2022/04/12 03:53:00;;;;;;;12.70;6.72;;;;;;;8.02;71.49;100955.38;5031152;28;20034;-47
2022/04/12 03:55:31;;;;;;;15.00;6.85;;;;;;;7.99;72.98;100953.00;5016883;28;20093;-47
2022/04/12 03:58:02;;;;;;;14.88;7.53;;;;;;;7.97;72.36;100941.66;4997297;28;20373;-48
2022/04/12 04:00:28;;;;;;;19.75;6.82;;;;;;;7.94;71.05;100932.16;4999412;28;20385;-45
2022/04/12 04:02:55;;;;;;;11.98;6.85;;;;;;;7.94;71.65;100921.53;4985947;28;20064;-46
2022/04/12 04:05:21;;;;;;;17.05;7.18;;;;;;;7.96;72.48;100927.53;5018211;28;20044;-47
2022/04/12 04:07:47;;;;;;;20.92;7.15;;;;;;;7.98;72.33;100936.22;5017993;28;20029;-46
2022/04/12 04:10:12;;;;;;;16.52;7.40;;;;;;;8.00;71.17;100934.25;5016403;28;20037;-47
2022/04/12 04:12:37;;;;;;;17.08;7.15;;;;;;;8.06;71.61;100938.13;4991201;28;20033;-46
2022/04/12 04:15:05;;;;;;;16.52;6.97;;;;;;;8.10;72.48;100942.22;5002071;28;20345;-46
2022/04/12 04:17:31;;;;;;;15.35;7.03;;;;;;;8.13;72.29;100941.94;5018192;28;20358;-48
2022/04/12 04:19:56;;;;;;;15.43;7.25;;;;;;;8.19;72.36;100945.84;5018396;28;20029;-47
2022/04/12 04:22:22;;;;;;;14.48;7.30;;;;;;;8.21;72.46;100944.72;5017608;28;20037;-46
2022/04/12 04:24:47;;;;;;;14.32;6.88;;;;;;;8.24;71.84;100942.75;5016767;28;20044;-46
2022/04/12 04:27:13;;;;;;;14.52;7.25;;;;;;;8.24;72.06;100930.28;5017446;28;20385;-47
2022/04/12 04:29:38;;;;;;;16.63;7.80;;;;;;;8.24;72.50;100940.09;5018277;28;20029;-48
2022/04/12 04:32:04;;;;;;;18.85;7.20;;;;;;;8.21;72.28;100936.75;5018322;28;20084;-49
2022/04/12 04:34:29;;;;;;;14.00;7.22;;;;;;;8.18;72.74;100944.13;5033159;28;20033;-48
2022/04/12 04:36:54;;;;;;;15.07;7.18;;;;;;;8.12;72.43;100956.19;5018047;28;20131;-46
2022/04/12 04:39:20;;;;;;;16.38;7.38;;;;;;;8.07;72.58;100954.97;5017805;28;20167;-49
2022/04/12 04:41:45;;;;;;;17.58;7.47;;;;;;;8.03;72.54;100947.25;5016204;28;20325;-46
2022/04/12 04:44:10;;;;;;;17.00;7.53;;;;;;;8.01;73.23;100937.72;5032564;28;20108;-49
2022/04/12 04:46:36;;;;;;;17.75;7.32;;;;;;;7.98;73.11;100940.69;5017166;28;20037;-50
2022/04/12 04:49:01;;;;;;;15.05;7.78;;;;;;;7.96;74.33;100953.28;5019317;28;20455;-47
2022/04/12 04:51:27;;;;;;;13.57;7.25;;;;;;;7.95;73.87;100957.75;5036763;28;20510;-48
2022/04/12 04:53:58;;;;;;;14.77;7.10;;;;;;;7.92;73.63;100959.88;5021262;28;20118;-48
2022/04/12 04:56:27;;;;;;;16.50;7.80;;;;;;;7.89;74.38;100966.31;5020336;28;20436;-45
2022/04/12 04:58:52;;;;;;;18.70;7.72;;;;;;;7.90;74.87;100977.78;5021588;28;20132;-47
2022/04/12 05:01:18;;;;;;;17.13;7.70;;;;;;;7.91;74.81;100987.44;5022114;28;20045;-47
2022/04/12 05:03:43;;;;;;;17.70;7.47;;;;;;;7.92;74.31;100975.81;5019934;28;20032;-47
2022/04/12 05:06:08;;;;;;;19.02;8.05;;;;;;;7.96;75.04;100987.84;5021171;28;20337;-47
2022/04/12 05:08:33;;;;;;;17.58;7.50;;;;;;;7.96;74.40;100982.53;5021117;28;20542;-47
2022/04/12 05:10:59;;;;;;;16.42;7.80;;;;;;;8.00;75.90;100990.09;5020561;28;20265;-48
2022/04/12 05:13:24;;;;;;;19.23;8.40;;;;;;;8.06;75.73;100980.69;5020541;28;20022;-51
2022/04/12 05:15:49;;;;;;;13.80;7.60;;;;;;;8.09;75.52;100971.63;5021127;28;20025;-48
2022/04/12 05:18:15;;;;;;;19.33;8.60;;;;;;;8.12;75.58;100969.50;5020651;28;20032;-48
2022/04/12 05:20:40;;;;;;;24.48;8.35;;;;;;;8.13;75.56;100965.00;5020619;28;20030;-48
2022/04/12 05:23:05;;;;;;;21.42;8.40;;;;;;;8.16;76.32;100973.56;5021211;28;20029;-46
2022/04/12 05:25:30;;;;;;;23.30;8.63;;;;;;;8.14;75.86;100967.53;5017464;28;20064;-47
2022/04/12 05:27:56;;;;;;;17.65;8.18;;;;;;;8.21;75.86;100971.31;5019860;28;20116;-49
2022/04/12 05:30:22;;;;;;;17.20;8.40;;;;;;;8.25;76.45;100968.34;5018466;28;20095;-49
2022/04/12 05:32:47;;;;;;;19.33;8.73;;;;;;;8.28;74.32;100965.41;5018672;28;20033;-49
2022/04/12 05:35:13;;;;;;;17.00;8.73;;;;;;;8.31;75.01;100967.78;5019947;28;20021;-49
2022/04/12 05:37:46;;;;;;;18.60;7.80;;;;;;;8.33;74.68;100963.16;5019173;28;20425;-48
2022/04/12 05:40:13;;;;;;;14.30;7.90;;;;;;;8.31;74.30;100952.66;5000963;28;20056;-47
2022/04/12 05:42:40;;;;;;;21.17;8.13;;;;;;;8.31;75.29;100955.31;5019784;28;20044;-46
2022/04/12 05:45:09;;;;;;;20.45;8.85;;;;;;;8.28;75.18;100957.44;5019124;28;20021;-48
2022/04/12 05:47:44;;;;;;;23.20;8.63;;;;;;;8.25;74.69;100955.06;5018860;28;20028;-48
2022/04/12 05:50:11;;;;;;;29.33;8.73;;;;;;;8.22;74.47;100969.50;5019501;28;20048;-50
2022/04/12 05:52:38;;;;;;;15.43;8.25;;;;;;;8.22;75.34;100965.00;5017838;28;20041;-47
2022/04/12 05:55:08;;;;;;;16.35;8.60;;;;;;;8.22;75.15;100967.66;5018298;28;20530;-48
2022/04/12 05:57:57;;;;;;;31.13;9.00;;;;;;;8.25;74.66;100976.34;5019202;28;20021;-50
2022/04/12 06:00:23;;;;;;;21.42;8.82;;;;;;;8.27;74.89;100975.22;5018901;28;20036;-48
2022/04/12 06:02:51;;;;;;;21.05;9.05;;;;;;;8.28;74.78;100968.06;5019554;28;20036;-50
2022/04/12 06:05:18;;;;;;;18.42;8.85;;;;;;;8.38;75.13;100974.22;5020904;28;20074;-47
2022/04/12 06:07:43;;;;;;;16.10;8.60;;;;;;;8.45;74.92;100971.84;5019497;28;20045;-49
2022/04/12 06:10:10;;;;;;;22.35;9.70;;;;;;;8.53;75.66;100969.31;5018212;28;20430;-46
2022/04/12 06:12:36;;;;;;;19.60;9.05;;;;;;;8.60;74.61;100983.72;5019444;28;21031;-47
2022/04/12 06:15:02;;;;;;;23.02;8.98;;;;;;;8.66;74.61;100980.47;5020723;28;20109;-50
2022/04/12 06:17:30;;;;;;;18.27;9.18;;;;;;;8.72;74.64;100981.72;5018785;28;20319;-50
2022/04/12 06:20:00;;;;;;;22.63;9.68;;;;;;;8.77;73.11;100985.63;5019968;28;20031;-49
2022/04/12 06:22:25;;;;;;;20.80;9.20;;;;;;;8.83;74.00;100976.22;5019929;28;20036;-50
2022/04/12 06:24:50;;;;;;;26.35;8.93;;;;;;;8.90;73.38;100979.97;5018303;28;20396;-48
2022/04/12 06:27:15;;;;;;;18.40;8.82;;;;;;;8.98;73.78;100978.38;5019578;28;20041;-50
2022/04/12 06:29:41;;;;;;;17.40;9.25;;;;;;;9.04;73.70;100967.16;5019521;28;20040;-50
2022/04/12 06:32:06;;;;;;;20.90;9.55;;;;;;;9.11;72.82;100979.75;5001980;28;20423;-47
2022/04/12 06:34:31;;;;;;;21.08;8.93;;;;;;;9.18;72.25;100976.47;5019881;28;20049;-48
2022/04/12 06:36:57;;;;;;;20.83;8.77;;;;;;;9.23;72.47;100980.38;5019484;28;20059;-49
2022/04/12 06:39:23;;;;;;;21.25;9.02;;;;;;;9.29;72.47;100982.44;5019373;28;20076;-47
2022/04/12 06:41:48;;;;;;;16.88;9.57;;;;;;;9.38;71.79;100974.53;5019427;28;20147;-49
2022/04/12 06:44:14;;;;;;;19.35;8.93;;;;;;;9.47;71.34;100968.28;5001853;28;20603;-46
2022/04/12 06:46:39;;;;;;;21.95;9.27;;;;;;;9.55;71.39;100973.69;5020014;28;20542;-48
2022/04/12 06:49:04;;;;;;;20.75;9.73;;;;;;;9.63;70.86;100979.13;5019516;28;20047;-48
2022/04/12 06:51:30;;;;;;;18.52;9.70;;;;;;;9.76;70.33;100978.75;5019893;28;20049;-47
2022/04/12 06:53:55;;;;;;;23.45;9.70;;;;;;;9.90;70.50;100980.88;5019550;28;20068;-49
2022/04/12 06:56:20;;;;;;;22.25;9.68;;;;;;;10.06;69.04;100971.31;5017958;28;20817;-50
2022/04/12 06:58:45;;;;;;;24.00;10.05;;;;;;;10.20;68.56;100960.09;5019010;28;20094;-47
2022/04/12 07:01:11;;;;;;;22.08;9.90;;;;;;;10.33;68.19;100956.22;5019133;28;20022;-47
2022/04/12 07:03:36;;;;;;;19.23;9.35;;;;;;;10.45;66.98;100966.50;5017695;28;20544;-50
2022/04/12 07:06:01;;;;;;;19.15;9.32;;;;;;;10.59;66.99;100970.41;5017986;28;20032;-47
2022/04/12 07:08:27;;;;;;;18.25;9.52;;;;;;;10.68;66.26;100973.94;4989620;28;20018;-50
2022/04/12 07:10:52;;;;;;;21.65;10.10;;;;;;;10.83;67.16;100969.69;5017137;28;20044;-48
2022/04/12 07:13:19;;;;;;;18.63;9.55;;;;;;;11.00;66.25;100973.28;5019311;28;20048;-48
2022/04/12 07:15:44;;;;;;;22.48;9.82;;;;;;;11.16;66.11;100967.13;5019472;28;20018;-47
2022/04/12 07:18:10;;;;;;;17.13;9.63;;;;;;;11.32;65.07;100973.53;5022050;28;20031;-50
2022/04/12 07:20:35;;;;;;;18.80;10.05;;;;;;;11.46;64.92;100972.91;5028148;28;20092;-47
2022/04/12 07:23:00;;;;;;;20.58;9.52;;;;;;;11.62;64.41;100965.91;5019548;28;20063;-48
2022/04/12 07:25:27;;;;;;;19.05;10.18;;;;;;;11.81;63.56;100972.78;5018264;28;20159;-50
2022/04/12 07:27:52;;;;;;;20.05;9.57;;;;;;;11.99;64.26;100968.16;5019045;28;20048;-47
2022/04/12 07:30:18;;;;;;;17.45;9.40;;;;;;;12.10;62.20;100966.97;5018418;28;20444;-48
2022/04/12 07:32:43;;;;;;;23.80;9.90;;;;;;;12.21;61.81;100969.31;5018697;28;20381;-47
2022/04/12 07:35:09;;;;;;;27.92;10.07;;;;;;;12.30;60.81;100972.81;5034054;28;20052;-49
2022/04/12 07:37:35;;;;;;;20.40;10.15;;;;;;;12.47;61.93;100968.25;5015626;28;20027;-48
2022/04/12 07:40:01;;;;;;;17.20;10.25;;;;;;;12.71;61.99;100969.22;5017462;28;20025;-47
2022/04/12 07:42:26;;;;;;;23.50;9.57;;;;;;;12.87;60.68;100958.44;5018757;28;20025;-48
2022/04/12 07:44:51;;;;;;;19.02;9.25;;;;;;;13.07;60.54;100962.38;5033597;28;20397;-46
2022/04/12 07:47:17;;;;;;;18.02;10.00;;;;;;;13.17;59.25;100958.63;5018575;28;20025;-49
2022/04/12 07:49:42;;;;;;;22.90;10.02;;;;;;;13.22;57.59;100958.94;5017979;28;20116;-48
2022/04/12 07:52:07;;;;;;;16.45;9.43;;;;;;;13.31;58.08;100962.44;5017965;28;20042;-47
2022/04/12 07:54:32;;;;;;;21.90;9.82;;;;;;;13.47;57.81;100969.59;5017940;28;20338;-47
2022/04/12 07:56:58;;;;;;;18.33;9.38;;;;;;;13.61;57.60;100961.63;5022155;28;20026;-50
2022/04/12 07:59:23;;;;;;;15.68;8.82;;;;;;;13.72;57.16;100965.72;5030061;28;20064;-51
2022/04/12 08:01:48;;;;;;;21.10;8.40;;;;;;;13.84;56.67;100974.19;5018142;28;20079;-47
2022/04/12 08:04:13;;;;;;;15.85;8.20;;;;;;;13.90;55.62;100969.94;5017322;28;20048;-45
2022/04/12 08:06:39;;;;;;;16.08;8.48;;;;;;;13.98;56.12;100972.56;5026039;28;20037;-48
2022/04/12 08:09:04;;;;;;;20.25;8.45;;;;;;;14.00;56.07;100965.16;5017505;28;20064;-50
2022/04/12 08:11:31;;;;;;;15.40;7.50;;;;;;;14.03;56.73;100964.81;5017122;28;20175;-48
2022/04/12 08:13:57;;;;;;;17.83;8.43;;;;;;;14.08;55.65;100969.63;5017846;28;20022;-46
2022/04/12 08:16:22;;;;;;;20.33;8.60;;;;;;;14.23;56.75;100972.38;5018603;28;20040;-47
2022/04/12 08:18:48;;;;;;;14.07;7.68;;;;;;;14.31;56.21;100975.81;5025181;28;20037;-48
2022/04/12 08:21:13;;;;;;;14.70;8.05;;;;;;;14.44;55.89;100974.34;5018050;28;20500;-49
2022/04/12 08:23:38;;;;;;;17.88;8.00;;;;;;;14.59;55.68;100972.53;5018968;28;20114;-51
2022/04/12 08:26:03;;;;;;;23.95;8.35;;;;;;;14.78;54.41;100973.00;5021592;28;20135;-48
2022/04/12 08:28:29;;;;;;;13.88;6.93;;;;;;;14.91;54.65;100965.13;5022625;28;20475;-47
2022/04/12 08:30:54;;;;;;;14.30;6.80;;;;;;;15.01;54.12;100965.66;5022853;28;20029;-48
2022/04/12 08:33:19;;;;;;;16.10;5.95;;;;;;;15.08;53.52;100958.50;5003950;28;20029;-48
2022/04/12 08:35:44;;;;;;;12.95;5.75;;;;;;;15.20;52.70;100968.78;5021947;28;20029;-50
2022/04/12 08:38:10;;;;;;;10.60;5.82;;;;;;;15.19;51.71;100976.03;5021986;28;20040;-47
2022/04/12 08:40:36;;;;;;;17.50;6.03;;;;;;;15.19;51.34;100980.56;5021282;28;20029;-51
2022/04/12 08:43:01;;;;;;;12.02;5.93;;;;;;;15.28;52.04;100972.19;5022815;28;20543;-48
2022/04/12 08:45:26;;;;;;;16.17;6.28;;;;;;;15.40;52.36;100971.72;5022896;28;20357;-49
2022/04/12 08:47:52;;;;;;;13.43;6.28;;;;;;;15.45;51.02;100964.72;5021425;28;20080;-49
2022/04/12 08:50:19;;;;;;;18.05;6.45;;;;;;;15.59;52.14;100951.41;5021843;28;20040;-49
2022/04/12 08:52:45;;;;;;;15.80;6.05;;;;;;;15.64;51.40;100933.66;5021108;28;20091;-50
2022/04/12 08:55:11;;;;;;;10.73;6.28;;;;;;;15.72;51.24;100932.72;5021662;28;20025;-49
2022/04/12 08:57:37;;;;;;;14.50;5.85;;;;;;;15.82;50.79;100945.88;5021401;28;20085;-48
2022/04/12 09:00:05;;;;;;;9.82;5.45;;;;;;;16.00;51.52;100937.31;5022843;28;20065;-47
2022/04/12 09:02:31;;;;;;;17.48;5.65;;;;;;;16.10;49.56;100935.13;5021736;28;20056;-49
2022/04/12 09:04:57;;;;;;;12.57;5.07;;;;;;;16.15;49.32;100924.59;5021340;28;20212;-47
2022/04/12 09:07:26;;;;;;;9.68;5.35;;;;;;;16.34;51.96;100928.44;5017140;28;21500;-51
2022/04/12 09:09:52;;;;;;;9.77;5.30;;;;;;;16.52;49.48;100927.13;5024062;28;20505;-50
2022/04/12 09:12:18;;;;;;;14.73;5.25;;;;;;;16.60;48.54;100929.66;4999822;28;20037;-50
2022/04/12 09:14:46;;;;;;;11.20;5.45;;;;;;;16.78;49.51;100927.28;5023600;28;20037;-49
2022/04/12 09:17:14;;;;;;;9.60;5.45;;;;;;;16.91;49.44;100931.09;5021643;28;20044;-49
2022/04/12 09:19:44;;;;;;;11.30;5.20;;;;;;;17.05;48.66;100927.41;4984373;28;20034;-50
2022/04/12 09:22:18;;;;;;;10.43;4.40;;;;;;;17.04;48.17;100930.28;5018239;28;20076;-48
2022/04/12 09:24:50;;;;;;;11.98;5.15;;;;;;;17.02;47.49;100916.19;5024820;28;20036;-51
2022/04/12 09:27:18;;;;;;;12.88;5.63;;;;;;;17.10;47.99;100922.22;5020928;28;20132;-49
2022/04/12 09:29:51;;;;;;;14.88;5.35;;;;;;;17.03;47.52;100904.38;5020869;28;20096;-49
2022/04/12 09:32:25;;;;;;;9.93;4.40;;;;;;;17.28;49.44;100912.75;5021057;28;20048;-48
2022/04/12 09:34:51;;;;;;;12.65;5.13;;;;;;;17.58;47.61;100906.97;5021271;28;20014;-50
2022/04/12 09:37:29;;;;;;;7.35;4.47;;;;;;;17.82;47.81;100913.63;5021468;28;20036;-49
2022/04/12 09:40:06;;;;;;;11.90;4.93;;;;;;;17.98;46.88;100898.94;5019433;28;20017;-47
2022/04/12 09:42:36;;;;;;;12.55;5.13;;;;;;;18.13;46.81;100910.34;5021795;28;20092;-48
2022/04/12 09:45:06;;;;;;;13.68;5.03;;;;;;;18.25;46.02;100908.66;5012547;28;20072;-48
2022/04/12 09:47:32;;;;;;;11.97;5.20;;;;;;;18.42;46.93;100900.94;5019052;28;20060;-48
2022/04/12 09:50:00;;;;;;;14.60;5.00;;;;;;;18.27;44.63;100911.97;5020510;28;20446;-47
2022/04/12 09:52:25;;;;;;;10.48;5.03;;;;;;;18.34;45.45;100903.84;5020062;28;20042;-47
2022/04/12 09:54:51;;;;;;;13.93;5.05;;;;;;;18.51;45.11;100906.13;5014867;28;20056;-47
2022/04/12 09:57:17;;;;;;;12.32;4.60;;;;;;;18.73;45.96;100909.38;5021201;28;20022;-51
2022/04/12 09:59:43;;;;;;;11.10;4.75;;;;;;;19.01;46.04;100917.22;5021472;28;20051;-48
2022/04/12 10:02:09;;;;;;;15.98;5.57;;;;;;;19.32;44.66;100908.28;5019947;28;20049;-52
2022/04/12 10:04:36;;;;;;;16.65;5.00;;;;;;;19.52;43.81;100918.19;5021863;28;20028;-49
2022/04/12 10:07:02;;;;;;;12.98;4.68;;;;;;;19.57;44.19;100923.78;5020517;28;20032;-50
2022/04/12 10:09:28;;;;;;;8.93;4.53;;;;;;;19.63;44.20;100912.03;5015237;28;20128;-49
2022/04/12 10:11:53;;;;;;;29.10;5.82;;;;;;;19.80;44.42;100911.53;5030914;28;20032;-51
2022/04/12 10:14:19;;;;;;;31.05;6.60;;;;;;;19.96;43.77;100899.31;5020446;28;20087;-51
2022/04/12 10:16:45;;;;;;;16.33;5.22;;;;;;;20.09;43.19;100902.72;5020034;28;20041;-50
2022/04/12 10:19:11;;;;;;;22.83;6.25;;;;;;;19.95;42.63;100895.78;5032096;28;20037;-50
2022/04/12 10:21:36;;;;;;;27.95;6.72;;;;;;;19.92;43.94;100879.94;5019761;28;20358;-50
2022/04/12 10:24:03;;;;;;;25.27;5.85;;;;;;;20.06;43.15;100872.50;5016597;28;20026;-50
2022/04/12 10:26:29;;;;;;;15.05;4.82;;;;;;;20.36;43.38;100859.06;5021416;28;20495;-49
2022/04/12 10:28:59;;;;;;;22.40;5.82;;;;;;;20.65;42.28;100862.09;5019467;28;20078;-53
2022/04/12 10:31:26;;;;;;;17.67;4.93;;;;;;;20.72;41.80;100862.84;5020334;28;20472;-50
2022/04/12 10:33:52;;;;;;;11.68;4.78;;;;;;;20.47;42.95;100861.03;5017280;28;20040;-47
2022/04/12 10:36:18;;;;;;;11.73;5.25;;;;;;;20.36;41.78;100861.78;5019290;28;20056;-49
2022/04/12 10:38:44;;;;;;;19.63;5.82;;;;;;;20.34;43.08;100861.19;5018227;28;20025;-48
2022/04/12 10:41:15;;;;;;;19.85;6.40;;;;;;;20.22;43.23;100861.09;5017758;28;20472;-51
2022/04/12 10:43:41;;;;;;;20.60;5.03;;;;;;;20.27;42.87;100863.97;5019210;28;20350;-51
2022/04/12 10:46:11;;;;;;;10.43;4.68;;;;;;;20.52;41.31;100867.66;5016710;28;20349;-51
2022/04/12 10:48:37;;;;;;;12.52;4.60;;;;;;;20.51;40.93;100866.81;5017119;28;20489;-50
2022/04/12 10:51:04;;;;;;;10.20;4.38;;;;;;;20.52;41.97;100856.78;5011838;28;20038;-48
2022/04/12 10:53:35;;;;;;;13.45;4.53;;;;;;;20.39;41.93;100849.66;5016983;28;20361;-51
2022/04/12 10:56:04;;;;;;;15.38;5.03;;;;;;;20.47;41.62;100849.34;5017346;28;20105;-47
2022/04/12 10:58:31;;;;;;;12.35;4.90;;;;;;;20.70;42.37;100842.44;5018994;28;20029;-49
2022/04/12 11:00:57;;;;;;;18.20;5.00;;;;;;;20.98;41.41;100841.84;5017715;28;20040;-51
2022/04/12 11:03:40;;;;;;;13.45;5.28;;;;;;;21.36;42.33;100844.19;5018462;28;20033;-50
2022/04/12 11:06:25;;;;;;;10.32;4.50;;;;;;;21.40;40.49;100834.53;5019580;28;20308;-48
2022/04/12 11:09:11;;;;;;;9.10;4.70;;;;;;;21.20;40.09;100834.84;5017257;28;20128;-50
2022/04/12 11:11:41;;;;;;;9.32;4.75;;;;;;;20.99;39.58;100843.50;5018941;28;20025;-49
2022/04/12 11:14:25;;;;;;;14.63;4.60;;;;;;;20.89;41.01;100845.94;5018904;28;20037;-48
2022/04/12 11:16:56;;;;;;;11.52;4.20;;;;;;;20.79;39.75;100858.19;5018785;28;21022;-50
2022/04/12 11:19:22;;;;;;;12.90;4.50;;;;;;;20.86;40.59;100858.91;5016816;28;20059;-51
2022/04/12 11:21:51;;;;;;;451.27;38.85;;;;;;;21.20;40.05;100859.28;5019373;28;20024;-51